sensor_id;sensor_type;location;lat;lon;timestamp;pressure;altitude;pressure_sealevel;temperature;humidity
71964;BME280;59834;52.124;5.422;2023-03-20T00:01:54;101988.66;;;7.89;96.59
71964;BME280;59834;52.124;5.422;2023-03-20T00:04:21;101987.94;;;7.84;97.23
71964;BME280;59834;52.124;5.422;2023-03-20T00:06:48;101988.03;;;7.82;97.39
71964;BME280;59834;52.124;5.422;2023-03-20T00:09:15;101990.66;;;7.80;97.57
71964;BME280;59834;52.124;5.422;2023-03-20T00:11:47;101988.91;;;7.81;97.51
71964;BME280;59834;52.124;5.422;2023-03-20T00:14:16;101990.56;;;7.84;98.25
71964;BME280;59834;52.124;5.422;2023-03-20T00:16:45;102001.72;;;7.87;97.06
71964;BME280;59834;52.124;5.422;2023-03-20T00:19:16;102002.72;;;7.85;97.26
71964;BME280;59834;52.124;5.422;2023-03-20T00:21:46;102002.81;;;7.82;96.90
71964;BME280;59834;52.124;5.422;2023-03-20T00:24:14;102000.13;;;7.83;96.80
71964;BME280;59834;52.124;5.422;2023-03-20T00:26:42;101989.72;;;7.83;97.09
71964;BME280;59834;52.124;5.422;2023-03-20T00:29:21;101987.94;;;7.84;97.20
71964;BME280;59834;52.124;5.422;2023-03-20T00:31:49;101993.13;;;7.85;97.10
71964;BME280;59834;52.124;5.422;2023-03-20T00:34:25;101987.06;;;7.85;96.74
71964;BME280;59834;52.124;5.422;2023-03-20T00:36:54;101985.25;;;7.87;96.80
71964;BME280;59834;52.124;5.422;2023-03-20T00:39:25;101973.88;;;7.89;96.76
71964;BME280;59834;52.124;5.422;2023-03-20T00:41:57;101967.91;;;7.86;96.35
71964;BME280;59834;52.124;5.422;2023-03-20T00:44:33;101969.78;;;7.82;96.68
71964;BME280;59834;52.124;5.422;2023-03-20T00:47:12;101983.84;;;7.76;96.95
71964;BME280;59834;52.124;5.422;2023-03-20T00:49:41;102001.28;;;7.74;97.43
71964;BME280;59834;52.124;5.422;2023-03-20T00:52:09;101995.22;;;7.74;97.41
71964;BME280;59834;52.124;5.422;2023-03-20T00:54:37;102008.22;;;7.75;97.58
71964;BME280;59834;52.124;5.422;2023-03-20T00:57:07;102011.59;;;7.77;97.26
71964;BME280;59834;52.124;5.422;2023-03-20T00:59:37;102017.69;;;7.78;96.59
71964;BME280;59834;52.124;5.422;2023-03-20T01:02:05;102034.19;;;7.78;96.91
71964;BME280;59834;52.124;5.422;2023-03-20T01:04:40;102041.94;;;7.80;96.33
71964;BME280;59834;52.124;5.422;2023-03-20T01:07:11;102047.06;;;7.83;96.65
71964;BME280;59834;52.124;5.422;2023-03-20T01:09:39;102046.16;;;7.84;96.90
71964;BME280;59834;52.124;5.422;2023-03-20T01:12:09;102047.06;;;7.83;96.17
71964;BME280;59834;52.124;5.422;2023-03-20T01:14:36;102040.19;;;7.80;95.24
71964;BME280;59834;52.124;5.422;2023-03-20T01:17:03;102015.88;;;7.80;95.05
71964;BME280;59834;52.124;5.422;2023-03-20T01:19:30;102014.19;;;7.79;94.52
71964;BME280;59834;52.124;5.422;2023-03-20T01:21:57;102013.44;;;7.75;94.52
71964;BME280;59834;52.124;5.422;2023-03-20T01:24:23;102034.41;;;7.71;94.76
71964;BME280;59834;52.124;5.422;2023-03-20T01:26:50;102028.41;;;7.69;94.78
71964;BME280;59834;52.124;5.422;2023-03-20T01:29:23;102031.03;;;7.69;94.92
71964;BME280;59834;52.124;5.422;2023-03-20T01:31:51;102023.13;;;7.70;94.38
71964;BME280;59834;52.124;5.422;2023-03-20T01:34:18;102017.06;;;7.71;94.50
71964;BME280;59834;52.124;5.422;2023-03-20T01:36:53;102024.06;;;7.69;94.20
71964;BME280;59834;52.124;5.422;2023-03-20T01:39:33;102037.03;;;7.71;94.75
71964;BME280;59834;52.124;5.422;2023-03-20T01:42:01;102023.03;;;7.73;93.53
71964;BME280;59834;52.124;5.422;2023-03-20T01:44:30;102016.28;;;7.68;93.22
71964;BME280;59834;52.124;5.422;2023-03-20T01:46:57;102019.03;;;7.63;93.56
71964;BME280;59834;52.124;5.422;2023-03-20T01:51:54;102028.69;;;7.60;93.65
71964;BME280;59834;52.124;5.422;2023-03-20T01:54:29;102023.59;;;7.56;92.93
71964;BME280;59834;52.124;5.422;2023-03-20T01:57:07;102022.00;;;7.52;93.32
71964;BME280;59834;52.124;5.422;2023-03-20T02:00:00;102015.09;;;7.51;93.04
71964;BME280;59834;52.124;5.422;2023-03-20T02:02:30;102004.84;;;7.45;93.22
71964;BME280;59834;52.124;5.422;2023-03-20T02:05:05;101998.91;;;7.40;92.57
71964;BME280;59834;52.124;5.422;2023-03-20T02:07:34;102012.94;;;7.36;93.13
71964;BME280;59834;52.124;5.422;2023-03-20T02:10:09;102030.34;;;7.36;93.37
71964;BME280;59834;52.124;5.422;2023-03-20T02:12:37;102019.84;;;7.37;93.29
71964;BME280;59834;52.124;5.422;2023-03-20T02:15:05;102017.25;;;7.37;92.60
71964;BME280;59834;52.124;5.422;2023-03-20T02:17:32;102011.25;;;7.35;93.61
71964;BME280;59834;52.124;5.422;2023-03-20T02:23:19;102022.84;;;7.25;93.45
71964;BME280;59834;52.124;5.422;2023-03-20T02:43:22;101994.44;;;7.17;94.54
71964;BME280;59834;52.124;5.422;2023-03-20T02:46:10;102000.59;;;7.15;94.66
71964;BME280;59834;52.124;5.422;2023-03-20T02:48:46;101993.63;;;7.15;94.72
71964;BME280;59834;52.124;5.422;2023-03-20T02:51:35;101999.69;;;7.16;94.34
71964;BME280;59834;52.124;5.422;2023-03-20T02:56:56;101991.03;;;7.15;94.30
71964;BME280;59834;52.124;5.422;2023-03-20T02:59:33;101976.25;;;7.16;94.09
71964;BME280;59834;52.124;5.422;2023-03-20T03:02:07;101971.09;;;7.14;94.08
71964;BME280;59834;52.124;5.422;2023-03-20T03:04:41;101963.34;;;7.13;93.57
71964;BME280;59834;52.124;5.422;2023-03-20T03:07:10;101949.56;;;7.09;93.02
71964;BME280;59834;52.124;5.422;2023-03-20T03:09:48;101932.28;;;7.06;93.79
71964;BME280;59834;52.124;5.422;2023-03-20T03:12:31;101928.91;;;7.04;93.62
71964;BME280;59834;52.124;5.422;2023-03-20T03:15:02;101941.03;;;7.04;93.48
71964;BME280;59834;52.124;5.422;2023-03-20T03:17:32;101940.28;;;7.00;93.90
71964;BME280;59834;52.124;5.422;2023-03-20T03:20:24;101943.94;;;6.95;93.56
71964;BME280;59834;52.124;5.422;2023-03-20T03:22:52;101938.81;;;6.92;93.27
71964;BME280;59834;52.124;5.422;2023-03-20T03:25:22;101945.81;;;6.90;93.91
71964;BME280;59834;52.124;5.422;2023-03-20T03:27:58;101952.03;;;6.84;93.73
71964;BME280;59834;52.124;5.422;2023-03-20T03:30:30;101956.47;;;6.82;94.01
71964;BME280;59834;52.124;5.422;2023-03-20T03:35:37;101952.19;;;6.79;93.17
71964;BME280;59834;52.124;5.422;2023-03-20T03:40:42;101931.66;;;6.70;93.93
71964;BME280;59834;52.124;5.422;2023-03-20T03:43:17;101940.50;;;6.65;93.62
71964;BME280;59834;52.124;5.422;2023-03-20T03:45:54;101931.94;;;6.61;94.28
71964;BME280;59834;52.124;5.422;2023-03-20T03:48:29;101932.97;;;6.55;94.15
71964;BME280;59834;52.124;5.422;2023-03-20T03:51:02;101935.63;;;6.54;94.47
71964;BME280;59834;52.124;5.422;2023-03-20T03:53:36;101923.50;;;6.53;93.84
71964;BME280;59834;52.124;5.422;2023-03-20T03:56:05;101930.63;;;6.46;94.66
71964;BME280;59834;52.124;5.422;2023-03-20T03:58:40;101925.50;;;6.43;94.14
71964;BME280;59834;52.124;5.422;2023-03-20T04:01:09;101922.06;;;6.43;94.73
71964;BME280;59834;52.124;5.422;2023-03-20T04:03:39;101923.00;;;6.40;94.86
71964;BME280;59834;52.124;5.422;2023-03-20T04:06:09;101916.19;;;6.36;94.82
71964;BME280;59834;52.124;5.422;2023-03-20T04:08:40;101916.25;;;6.34;94.43
71964;BME280;59834;52.124;5.422;2023-03-20T04:11:22;101911.06;;;6.33;94.75
71964;BME280;59834;52.124;5.422;2023-03-20T04:13:51;101914.56;;;6.32;95.00
71964;BME280;59834;52.124;5.422;2023-03-20T04:16:19;101906.78;;;6.32;95.45
71964;BME280;59834;52.124;5.422;2023-03-20T04:18:46;101914.50;;;6.35;94.95
71964;BME280;59834;52.124;5.422;2023-03-20T04:21:13;101911.81;;;6.36;94.39
71964;BME280;59834;52.124;5.422;2023-03-20T04:23:41;101909.38;;;6.32;94.51
71964;BME280;59834;52.124;5.422;2023-03-20T04:26:08;101905.06;;;6.31;95.01
71964;BME280;59834;52.124;5.422;2023-03-20T04:28:35;101905.94;;;6.31;94.75
71964;BME280;59834;52.124;5.422;2023-03-20T04:31:01;101903.31;;;6.31;94.79
71964;BME280;59834;52.124;5.422;2023-03-20T04:33:28;101905.88;;;6.33;94.57
71964;BME280;59834;52.124;5.422;2023-03-20T04:35:55;101901.50;;;6.33;94.29
71964;BME280;59834;52.124;5.422;2023-03-20T04:38:24;101905.88;;;6.33;94.03
71964;BME280;59834;52.124;5.422;2023-03-20T04:40:51;101918.06;;;6.31;95.01
71964;BME280;59834;52.124;5.422;2023-03-20T04:43:17;101913.84;;;6.27;95.04
71964;BME280;59834;52.124;5.422;2023-03-20T04:45:44;101908.69;;;6.25;95.10
71964;BME280;59834;52.124;5.422;2023-03-20T04:48:11;101915.59;;;6.26;94.98
71964;BME280;59834;52.124;5.422;2023-03-20T04:50:37;101907.75;;;6.28;95.15
71964;BME280;59834;52.124;5.422;2023-03-20T04:53:04;101918.06;;;6.31;95.11
71964;BME280;59834;52.124;5.422;2023-03-20T04:55:31;101914.56;;;6.32;94.78
71964;BME280;59834;52.124;5.422;2023-03-20T04:57:57;101914.50;;;6.35;94.25
71964;BME280;59834;52.124;5.422;2023-03-20T05:00:24;101909.28;;;6.35;94.32
71964;BME280;59834;52.124;5.422;2023-03-20T05:02:51;101904.16;;;6.32;94.54
71964;BME280;59834;52.124;5.422;2023-03-20T05:05:17;101901.59;;;6.30;94.59
71964;BME280;59834;52.124;5.422;2023-03-20T05:07:44;101899.06;;;6.29;94.04
71964;BME280;59834;52.124;5.422;2023-03-20T05:10:11;101899.97;;;6.28;94.71
71964;BME280;59834;52.124;5.422;2023-03-20T05:12:37;101895.75;;;6.24;95.23
71964;BME280;59834;52.124;5.422;2023-03-20T05:15:04;101896.63;;;6.23;95.10
71964;BME280;59834;52.124;5.422;2023-03-20T05:17:31;101890.44;;;6.27;94.74
71964;BME280;59834;52.124;5.422;2023-03-20T05:19:57;101889.59;;;6.26;95.00
71964;BME280;59834;52.124;5.422;2023-03-20T05:22:25;101889.59;;;6.26;94.85
71964;BME280;59834;52.124;5.422;2023-03-20T05:24:51;101901.78;;;6.24;94.94
71964;BME280;59834;52.124;5.422;2023-03-20T05:27:18;101898.34;;;6.24;95.46
71964;BME280;59834;52.124;5.422;2023-03-20T05:29:44;101900.84;;;6.27;94.77
71964;BME280;59834;52.124;5.422;2023-03-20T05:32:12;101907.78;;;6.26;95.39
71964;BME280;59834;52.124;5.422;2023-03-20T05:34:39;101904.34;;;6.26;95.12
71964;BME280;59834;52.124;5.422;2023-03-20T05:37:05;101898.28;;;6.25;95.01
71964;BME280;59834;52.124;5.422;2023-03-20T05:39:32;101893.03;;;6.27;95.44
71964;BME280;59834;52.124;5.422;2023-03-20T05:41:58;101901.75;;;6.26;94.78
71964;BME280;59834;52.124;5.422;2023-03-20T05:44:25;101898.28;;;6.25;95.24
71964;BME280;59834;52.124;5.422;2023-03-20T05:46:51;101913.03;;;6.25;95.05
71964;BME280;59834;52.124;5.422;2023-03-20T05:49:18;101913.06;;;6.23;95.25
71964;BME280;59834;52.124;5.422;2023-03-20T05:51:44;101915.72;;;6.22;95.15
71964;BME280;59834;52.124;5.422;2023-03-20T05:54:11;101915.72;;;6.22;95.58
71964;BME280;59834;52.124;5.422;2023-03-20T05:56:37;101920.94;;;6.22;95.58
71964;BME280;59834;52.124;5.422;2023-03-20T05:59:05;101924.38;;;6.22;95.53
71964;BME280;59834;52.124;5.422;2023-03-20T06:01:31;101926.94;;;6.24;95.26
71964;BME280;59834;52.124;5.422;2023-03-20T06:03:58;101928.59;;;6.26;95.71
71964;BME280;59834;52.124;5.422;2023-03-20T06:06:24;101930.25;;;6.29;95.72
71964;BME280;59834;52.124;5.422;2023-03-20T06:08:51;101925.88;;;6.31;95.16
71964;BME280;59834;52.124;5.422;2023-03-20T06:11:17;101922.31;;;6.33;95.01
71964;BME280;59834;52.124;5.422;2023-03-20T06:13:44;101918.88;;;6.33;94.76
71964;BME280;59834;52.124;5.422;2023-03-20T06:16:11;101916.34;;;6.30;94.54
71964;BME280;59834;52.124;5.422;2023-03-20T06:18:37;101905.06;;;6.31;94.95
71964;BME280;59834;52.124;5.422;2023-03-20T06:21:04;101918.94;;;6.31;95.10
71964;BME280;59834;52.124;5.422;2023-03-20T06:23:31;101918.06;;;6.31;94.67
71964;BME280;59834;52.124;5.422;2023-03-20T06:25:57;101918.88;;;6.33;95.01
71964;BME280;59834;52.124;5.422;2023-03-20T06:28:24;101921.47;;;6.33;95.07
71964;BME280;59834;52.124;5.422;2023-03-20T06:30:51;101928.41;;;6.32;95.42
71964;BME280;59834;52.124;5.422;2023-03-20T06:33:19;101935.38;;;6.32;94.64
71964;BME280;59834;52.124;5.422;2023-03-20T06:35:45;101935.38;;;6.32;95.32
71964;BME280;59834;52.124;5.422;2023-03-20T06:38:13;101938.00;;;6.30;95.50
71964;BME280;59834;52.124;5.422;2023-03-20T06:40:39;101942.41;;;6.28;94.99
71964;BME280;59834;52.124;5.422;2023-03-20T06:43:07;101939.75;;;6.30;95.29
71964;BME280;59834;52.124;5.422;2023-03-20T06:45:33;101943.16;;;6.32;94.95
71964;BME280;59834;52.124;5.422;2023-03-20T06:48:00;101938.78;;;6.34;95.58
71964;BME280;59834;52.124;5.422;2023-03-20T06:50:27;101945.59;;;6.38;95.28
71964;BME280;59834;52.124;5.422;2023-03-20T06:52:53;101946.41;;;6.40;95.15
71964;BME280;59834;52.124;5.422;2023-03-20T06:55:20;101950.75;;;6.40;94.53
71964;BME280;59834;52.124;5.422;2023-03-20T06:57:46;101949.88;;;6.41;95.01
71964;BME280;59834;52.124;5.422;2023-03-20T07:00:13;101948.91;;;6.43;94.91
71964;BME280;59834;52.124;5.422;2023-03-20T07:02:40;101945.53;;;6.41;95.25
71964;BME280;59834;52.124;5.422;2023-03-20T07:05:07;101948.13;;;6.41;95.09
71964;BME280;59834;52.124;5.422;2023-03-20T07:07:34;101949.00;;;6.40;94.74
71964;BME280;59834;52.124;5.422;2023-03-20T07:10:00;101945.53;;;6.41;95.30
71964;BME280;59834;52.124;5.422;2023-03-20T07:12:27;101943.78;;;6.42;94.99
71964;BME280;59834;52.124;5.422;2023-03-20T07:14:54;101947.16;;;6.44;94.67
71964;BME280;59834;52.124;5.422;2023-03-20T07:17:21;101948.91;;;6.43;95.08
71964;BME280;59834;52.124;5.422;2023-03-20T07:19:48;101942.84;;;6.44;94.52
71964;BME280;59834;52.124;5.422;2023-03-20T07:22:24;101946.22;;;6.46;94.36
71964;BME280;59834;52.124;5.422;2023-03-20T07:24:51;101950.56;;;6.47;94.96
71964;BME280;59834;52.124;5.422;2023-03-20T07:27:18;101945.38;;;6.46;94.20
71964;BME280;59834;52.124;5.422;2023-03-20T07:29:45;101953.19;;;6.46;94.63
71964;BME280;59834;52.124;5.422;2023-03-20T07:32:12;101951.44;;;6.46;94.96
71964;BME280;59834;52.124;5.422;2023-03-20T07:34:40;101957.53;;;6.45;95.05
71964;BME280;59834;52.124;5.422;2023-03-20T07:37:07;101944.44;;;6.48;94.46
71964;BME280;59834;52.124;5.422;2023-03-20T07:39:33;101958.25;;;6.50;94.48
71964;BME280;59834;52.124;5.422;2023-03-20T07:42:00;101953.84;;;6.52;94.37
71964;BME280;59834;52.124;5.422;2023-03-20T07:44:26;101962.47;;;6.54;94.52
71964;BME280;59834;52.124;5.422;2023-03-20T07:46:53;101959.88;;;6.54;94.35
71964;BME280;59834;52.124;5.422;2023-03-20T07:49:19;101953.69;;;6.58;93.90
71964;BME280;59834;52.124;5.422;2023-03-20T07:51:47;101951.78;;;6.64;93.74
71964;BME280;59834;52.124;5.422;2023-03-20T07:54:14;101953.59;;;6.61;93.79
71964;BME280;59834;52.124;5.422;2023-03-20T07:56:41;101956.13;;;6.65;93.62
71964;BME280;59834;52.124;5.422;2023-03-20T07:59:08;101952.59;;;6.66;93.66
71964;BME280;59834;52.124;5.422;2023-03-20T08:01:34;101952.53;;;6.69;93.54
71964;BME280;59834;52.124;5.422;2023-03-20T08:04:01;101949.91;;;6.69;93.38
71964;BME280;59834;52.124;5.422;2023-03-20T08:06:28;101958.44;;;6.74;93.00
71964;BME280;59834;52.124;5.422;2023-03-20T08:08:54;101950.53;;;6.77;92.58
71964;BME280;59834;52.124;5.422;2023-03-20T08:11:21;101952.16;;;6.81;92.73
71964;BME280;59834;52.124;5.422;2023-03-20T08:13:47;101953.69;;;6.88;92.17
71964;BME280;59834;52.124;5.422;2023-03-20T08:16:14;101955.22;;;6.94;91.71
71964;BME280;59834;52.124;5.422;2023-03-20T08:18:40;101943.88;;;6.96;91.70
71964;BME280;59834;52.124;5.422;2023-03-20T08:21:07;101947.31;;;6.98;91.20
71964;BME280;59834;52.124;5.422;2023-03-20T08:23:34;101955.03;;;7.00;90.63
71964;BME280;59834;52.124;5.422;2023-03-20T08:26:00;101947.25;;;7.00;89.64
71964;BME280;59834;52.124;5.422;2023-03-20T08:28:27;101961.66;;;7.10;89.77
71964;BME280;59834;52.124;5.422;2023-03-20T08:31:12;101958.72;;;7.21;89.50
71964;BME280;59834;52.124;5.422;2023-03-20T08:33:38;101954.31;;;7.24;89.01
71964;BME280;59834;52.124;5.422;2023-03-20T08:36:06;101944.72;;;7.25;88.46
71964;BME280;59834;52.124;5.422;2023-03-20T08:38:32;101953.31;;;7.27;88.61
71964;BME280;59834;52.124;5.422;2023-03-20T08:40:59;101938.22;;;7.38;88.84
71964;BME280;59834;52.124;5.422;2023-03-20T08:43:26;101947.63;;;7.42;87.78
71964;BME280;59834;52.124;5.422;2023-03-20T08:45:52;101942.53;;;7.39;87.77
71964;BME280;59834;52.124;5.422;2023-03-20T08:48:19;101945.78;;;7.46;87.42
71964;BME280;59834;52.124;5.422;2023-03-20T08:50:47;101948.88;;;7.57;87.62
71964;BME280;59834;52.124;5.422;2023-03-20T08:53:13;101947.84;;;7.63;87.79
71964;BME280;59834;52.124;5.422;2023-03-20T08:55:40;101948.50;;;7.68;86.51
71964;BME280;59834;52.124;5.422;2023-03-20T08:58:06;101947.66;;;7.67;86.59
71964;BME280;59834;52.124;5.422;2023-03-20T09:00:33;101947.47;;;7.73;86.84
71964;BME280;59834;52.124;5.422;2023-03-20T09:02:59;101942.22;;;7.75;85.73
71964;BME280;59834;52.124;5.422;2023-03-20T09:05:27;101953.72;;;7.68;85.83
71964;BME280;59834;52.124;5.422;2023-03-20T09:07:53;101941.47;;;7.71;86.65
71964;BME280;59834;52.124;5.422;2023-03-20T09:10:19;101955.25;;;7.75;87.12
71964;BME280;59834;52.124;5.422;2023-03-20T09:12:46;101959.38;;;7.80;88.10
71964;BME280;59834;52.124;5.422;2023-03-20T09:15:21;101962.16;;;7.76;88.28
71964;BME280;59834;52.124;5.422;2023-03-20T09:17:49;101959.59;;;7.74;88.30
71964;BME280;59834;52.124;5.422;2023-03-20T09:20:15;101960.38;;;7.78;89.77
71964;BME280;59834;52.124;5.422;2023-03-20T09:22:42;101958.22;;;7.89;90.13
71964;BME280;59834;52.124;5.422;2023-03-20T09:25:11;101953.00;;;7.89;89.67
71964;BME280;59834;52.124;5.422;2023-03-20T09:27:38;101956.41;;;7.91;90.24
71964;BME280;59834;52.124;5.422;2023-03-20T09:30:05;101947.59;;;7.95;90.44
71964;BME280;59834;52.124;5.422;2023-03-20T09:32:33;101955.63;;;7.89;90.76
71964;BME280;59834;52.124;5.422;2023-03-20T09:35:01;101960.94;;;7.86;90.51
71964;BME280;59834;52.124;5.422;2023-03-20T09:37:28;101966.81;;;7.91;91.23
71964;BME280;59834;52.124;5.422;2023-03-20T09:39:54;101955.00;;;7.81;91.25
71964;BME280;59834;52.124;5.422;2023-03-20T09:42:33;101958.75;;;7.74;90.83
71964;BME280;59834;52.124;5.422;2023-03-20T09:45:15;101957.53;;;7.84;91.84
71964;BME280;59834;52.124;5.422;2023-03-20T09:48:01;101952.81;;;7.95;91.43
71964;BME280;59834;52.124;5.422;2023-03-20T09:53:33;101952.91;;;7.92;92.02
71964;BME280;59834;52.124;5.422;2023-03-20T09:56:02;101944.00;;;7.98;91.97
71964;BME280;59834;52.124;5.422;2023-03-20T09:58:34;101948.13;;;8.05;92.40
71964;BME280;59834;52.124;5.422;2023-03-20T10:01:04;101946.94;;;8.14;92.47
71964;BME280;59834;52.124;5.422;2023-03-20T10:03:49;101934.06;;;8.09;90.96
71964;BME280;59834;52.124;5.422;2023-03-20T10:06:16;101940.25;;;8.07;91.49
71964;BME280;59834;52.124;5.422;2023-03-20T10:08:44;101939.81;;;8.19;91.69
71964;BME280;59834;52.124;5.422;2023-03-20T10:11:39;101937.00;;;8.25;90.67
71964;BME280;59834;52.124;5.422;2023-03-20T10:19:59;101929.78;;;8.32;90.61
71964;BME280;59834;52.124;5.422;2023-03-20T10:25:14;101946.84;;;8.42;89.43
71964;BME280;59834;52.124;5.422;2023-03-20T10:27:45;101939.06;;;8.40;89.71
71964;BME280;59834;52.124;5.422;2023-03-20T10:33:17;101933.91;;;8.37;90.68
71964;BME280;59834;52.124;5.422;2023-03-20T10:36:20;101927.97;;;8.34;90.22
71964;BME280;59834;52.124;5.422;2023-03-20T10:38:59;101924.50;;;8.33;90.86
71964;BME280;59834;52.124;5.422;2023-03-20T10:41:34;101929.72;;;8.33;90.56
71964;BME280;59834;52.124;5.422;2023-03-20T10:44:04;101926.97;;;8.38;90.29
71964;BME280;59834;52.124;5.422;2023-03-20T10:46:34;101925.53;;;8.29;89.71
71964;BME280;59834;52.124;5.422;2023-03-20T10:49:26;101922.91;;;8.29;90.03
71964;BME280;59834;52.124;5.422;2023-03-20T10:51:59;101925.31;;;8.35;90.68
71964;BME280;59834;52.124;5.422;2023-03-20T10:54:30;101923.75;;;8.30;90.86
71964;BME280;59834;52.124;5.422;2023-03-20T10:57:01;101923.47;;;8.37;91.88
71964;BME280;59834;52.124;5.422;2023-03-20T10:59:33;101919.88;;;8.41;91.14
71964;BME280;59834;52.124;5.422;2023-03-20T11:02:00;101921.72;;;8.39;90.48
71964;BME280;59834;52.124;5.422;2023-03-20T11:04:27;101917.41;;;8.37;90.94
71964;BME280;59834;52.124;5.422;2023-03-20T11:09:28;101918.88;;;8.45;91.38
71964;BME280;59834;52.124;5.422;2023-03-20T11:11:58;101914.44;;;8.47;91.63
71964;BME280;59834;52.124;5.422;2023-03-20T11:14:31;101913.03;;;8.39;91.31
71964;BME280;59834;52.124;5.422;2023-03-20T11:17:00;101916.69;;;8.33;91.90
71964;BME280;59834;52.124;5.422;2023-03-20T11:19:37;101915.63;;;8.39;91.62
71964;BME280;59834;52.124;5.422;2023-03-20T11:22:29;101911.56;;;8.30;91.91
71964;BME280;59834;52.124;5.422;2023-03-20T11:24:57;101918.84;;;8.22;93.10
71964;BME280;59834;52.124;5.422;2023-03-20T11:27:29;101910.00;;;8.26;94.37
71964;BME280;59834;52.124;5.422;2023-03-20T11:29:57;101909.03;;;8.29;93.38
71964;BME280;59834;52.124;5.422;2023-03-20T11:32:46;101900.47;;;8.25;93.54
71964;BME280;59834;52.124;5.422;2023-03-20T11:37:45;101892.47;;;8.30;93.38
71964;BME280;59834;52.124;5.422;2023-03-20T11:40:21;101889.00;;;8.29;93.40
71964;BME280;59834;52.124;5.422;2023-03-20T11:45:33;101874.88;;;8.35;93.53
71964;BME280;59834;52.124;5.422;2023-03-20T11:48:02;101879.78;;;8.44;93.92
71964;BME280;59834;52.124;5.422;2023-03-20T11:50:33;101882.47;;;8.42;93.11
71964;BME280;59834;52.124;5.422;2023-03-20T11:53:24;101875.66;;;8.37;93.14
71964;BME280;59834;52.124;5.422;2023-03-20T11:56:24;101881.47;;;8.45;92.75
71964;BME280;59834;52.124;5.422;2023-03-20T11:59:13;101876.13;;;8.48;93.38
71964;BME280;59834;52.124;5.422;2023-03-20T12:01:49;101879.47;;;8.52;93.39
71964;BME280;59834;52.124;5.422;2023-03-20T12:04:28;101874.88;;;8.58;92.69
71964;BME280;59834;52.124;5.422;2023-03-20T12:07:02;101873.81;;;8.64;93.39
71964;BME280;59834;52.124;5.422;2023-03-20T12:09:39;101874.28;;;8.73;94.07
71964;BME280;59834;52.124;5.422;2023-03-20T12:20:31;101869.81;;;8.77;93.63
71964;BME280;59834;52.124;5.422;2023-03-20T12:26:00;101871.91;;;8.67;94.35
71964;BME280;59834;52.124;5.422;2023-03-20T12:34:10;101874.47;;;8.69;94.35
71964;BME280;59834;52.124;5.422;2023-03-20T12:36:49;101874.16;;;8.55;95.12
71964;BME280;59834;52.124;5.422;2023-03-20T12:39:26;101874.16;;;8.55;96.48
71964;BME280;59834;52.124;5.422;2023-03-20T12:45:02;101871.38;;;8.81;96.69
71964;BME280;59834;52.124;5.422;2023-03-20T12:47:52;101860.31;;;8.74;96.25
71964;BME280;59834;52.124;5.422;2023-03-20T12:50:41;101858.31;;;8.81;97.42
71964;BME280;59834;52.124;5.422;2023-03-20T13:02:01;101846.00;;;8.85;97.29
71964;BME280;59834;52.124;5.422;2023-03-20T13:10:22;101839.63;;;8.70;98.99
71964;BME280;59834;52.124;5.422;2023-03-20T13:12:58;101839.69;;;8.68;99.36
71964;BME280;59834;52.124;5.422;2023-03-20T13:19:14;101844.91;;;8.46;100.00
71964;BME280;59834;52.124;5.422;2023-03-20T13:22:17;101841.94;;;8.56;99.82
71964;BME280;59834;52.124;5.422;2023-03-20T13:25:02;101838.34;;;8.58;100.00
71964;BME280;59834;52.124;5.422;2023-03-20T13:30:45;101832.47;;;8.53;99.67
71964;BME280;59834;52.124;5.422;2023-03-20T13:39:13;101824.16;;;8.65;100.00
71964;BME280;59834;52.124;5.422;2023-03-20T13:41:42;101820.03;;;8.60;100.00
71964;BME280;59834;52.124;5.422;2023-03-20T13:44:10;101819.34;;;8.55;100.00
71964;BME280;59834;52.124;5.422;2023-03-20T13:49:23;101813.34;;;8.53;100.00
71964;BME280;59834;52.124;5.422;2023-03-20T13:52:05;101816.94;;;8.50;100.00
71964;BME280;59834;52.124;5.422;2023-03-20T13:54:58;101811.53;;;8.55;100.00
71964;BME280;59834;52.124;5.422;2023-03-20T14:00:34;101813.00;;;8.62;100.00
71964;BME280;59834;52.124;5.422;2023-03-20T14:03:23;101819.13;;;8.61;100.00
71964;BME280;59834;52.124;5.422;2023-03-20T14:05:51;101812.84;;;8.65;100.00
71964;BME280;59834;52.124;5.422;2023-03-20T14:10:55;101809.72;;;8.57;100.00
71964;BME280;59834;52.124;5.422;2023-03-20T14:13:31;101807.09;;;8.57;100.00
71964;BME280;59834;52.124;5.422;2023-03-20T14:16:01;101806.31;;;8.55;100.00
71964;BME280;59834;52.124;5.422;2023-03-20T14:18:29;101808.06;;;8.54;100.00
71964;BME280;59834;52.124;5.422;2023-03-20T14:21:01;101817.53;;;8.57;100.00
71964;BME280;59834;52.124;5.422;2023-03-20T14:23:38;101809.59;;;8.60;100.00
71964;BME280;59834;52.124;5.422;2023-03-20T14:26:19;101815.03;;;8.54;100.00
71964;BME280;59834;52.124;5.422;2023-03-20T14:39:33;101808.69;;;8.37;100.00
71964;BME280;59834;52.124;5.422;2023-03-20T14:57:47;101802.53;;;8.40;100.00
71964;BME280;59834;52.124;5.422;2023-03-20T15:00:24;101808.59;;;8.40;100.00
71964;BME280;59834;52.124;5.422;2023-03-20T15:03:14;101804.19;;;8.42;100.00
71964;BME280;59834;52.124;5.422;2023-03-20T15:05:43;101804.44;;;8.35;100.00
71964;BME280;59834;52.124;5.422;2023-03-20T15:08:23;101800.44;;;8.26;100.00
71964;BME280;59834;52.124;5.422;2023-03-20T15:10:55;101805.81;;;8.21;100.00
71964;BME280;59834;52.124;5.422;2023-03-20T15:13:25;101805.03;;;8.19;100.00
71964;BME280;59834;52.124;5.422;2023-03-20T15:16:02;101805.78;;;8.23;100.00
71964;BME280;59834;52.124;5.422;2023-03-20T15:18:36;101801.47;;;8.22;100.00
71964;BME280;59834;52.124;5.422;2023-03-20T15:21:03;101792.72;;;8.23;100.00
71964;BME280;59834;52.124;5.422;2023-03-20T15:23:29;101800.75;;;8.18;100.00
71964;BME280;59834;52.124;5.422;2023-03-20T15:25:58;101792.91;;;8.18;100.00
71964;BME280;59834;52.124;5.422;2023-03-20T15:28:26;101798.00;;;8.21;100.00
71964;BME280;59834;52.124;5.422;2023-03-20T15:30:56;101790.00;;;8.26;100.00
71964;BME280;59834;52.124;5.422;2023-03-20T15:33:29;101793.53;;;8.25;100.00
71964;BME280;59834;52.124;5.422;2023-03-20T15:35:57;101790.97;;;8.23;100.00